sensor_id;sensor_type;location;lat;lon;timestamp;P1;durP1;ratioP1;P2;durP2;ratioP2
21206;SDS011;10761;48.532;8.026;2023-06-22T00:02:12;10.60;;;7.80;;
21206;SDS011;10761;48.532;8.026;2023-06-22T00:04:38;10.38;;;7.72;;
21206;SDS011;10761;48.532;8.026;2023-06-22T00:07:04;9.77;;;8.10;;
21206;SDS011;10761;48.532;8.026;2023-06-22T00:09:30;12.77;;;9.10;;
21206;SDS011;10761;48.532;8.026;2023-06-22T00:11:56;13.48;;;9.38;;
21206;SDS011;10761;48.532;8.026;2023-06-22T00:14:21;12.25;;;10.57;;
21206;SDS011;10761;48.532;8.026;2023-06-22T00:16:47;10.20;;;9.25;;
21206;SDS011;10761;48.532;8.026;2023-06-22T00:19:14;15.38;;;9.68;;
21206;SDS011;10761;48.532;8.026;2023-06-22T00:21:40;11.80;;;9.80;;
21206;SDS011;10761;48.532;8.026;2023-06-22T00:24:07;11.98;;;9.50;;
21206;SDS011;10761;48.532;8.026;2023-06-22T00:26:33;11.13;;;9.57;;
21206;SDS011;10761;48.532;8.026;2023-06-22T00:28:58;12.07;;;9.93;;
21206;SDS011;10761;48.532;8.026;2023-06-22T00:31:24;10.48;;;9.45;;
21206;SDS011;10761;48.532;8.026;2023-06-22T00:33:49;12.10;;;9.98;;
21206;SDS011;10761;48.532;8.026;2023-06-22T00:36:15;15.73;;;9.35;;
21206;SDS011;10761;48.532;8.026;2023-06-22T00:38:42;16.20;;;9.60;;
21206;SDS011;10761;48.532;8.026;2023-06-22T00:41:08;14.52;;;9.80;;
21206;SDS011;10761;48.532;8.026;2023-06-22T00:43:34;11.85;;;9.38;;
21206;SDS011;10761;48.532;8.026;2023-06-22T00:45:59;10.38;;;9.20;;
21206;SDS011;10761;48.532;8.026;2023-06-22T00:48:25;10.18;;;8.70;;
21206;SDS011;10761;48.532;8.026;2023-06-22T00:50:51;11.52;;;9.32;;
21206;SDS011;10761;48.532;8.026;2023-06-22T00:53:18;11.32;;;8.40;;
21206;SDS011;10761;48.532;8.026;2023-06-22T00:55:44;11.10;;;8.55;;
21206;SDS011;10761;48.532;8.026;2023-06-22T00:58:16;14.30;;;8.77;;
21206;SDS011;10761;48.532;8.026;2023-06-22T01:00:46;10.40;;;7.82;;
21206;SDS011;10761;48.532;8.026;2023-06-22T01:03:13;9.73;;;8.65;;
21206;SDS011;10761;48.532;8.026;2023-06-22T01:05:38;9.80;;;8.85;;
21206;SDS011;10761;48.532;8.026;2023-06-22T01:14:06;12.02;;;8.38;;
21206;SDS011;10761;48.532;8.026;2023-06-22T01:16:37;10.82;;;8.27;;
21206;SDS011;10761;48.532;8.026;2023-06-22T01:19:20;12.48;;;9.05;;
21206;SDS011;10761;48.532;8.026;2023-06-22T01:22:00;9.43;;;8.27;;
21206;SDS011;10761;48.532;8.026;2023-06-22T01:24:27;11.55;;;8.27;;
21206;SDS011;10761;48.532;8.026;2023-06-22T01:30:06;11.20;;;8.70;;
21206;SDS011;10761;48.532;8.026;2023-06-22T01:32:35;10.18;;;8.63;;
21206;SDS011;10761;48.532;8.026;2023-06-22T01:35:03;12.45;;;8.55;;
21206;SDS011;10761;48.532;8.026;2023-06-22T01:37:31;10.57;;;8.77;;
21206;SDS011;10761;48.532;8.026;2023-06-22T01:39:59;12.27;;;8.93;;
21206;SDS011;10761;48.532;8.026;2023-06-22T01:42:26;12.52;;;9.07;;
21206;SDS011;10761;48.532;8.026;2023-06-22T01:44:52;11.85;;;9.13;;
21206;SDS011;10761;48.532;8.026;2023-06-22T01:47:19;11.82;;;9.35;;
21206;SDS011;10761;48.532;8.026;2023-06-22T01:49:46;13.73;;;9.60;;
21206;SDS011;10761;48.532;8.026;2023-06-22T01:52:12;10.68;;;9.30;;
21206;SDS011;10761;48.532;8.026;2023-06-22T01:54:39;10.13;;;9.10;;
21206;SDS011;10761;48.532;8.026;2023-06-22T01:57:05;12.07;;;10.48;;
21206;SDS011;10761;48.532;8.026;2023-06-22T01:59:39;12.60;;;11.05;;
21206;SDS011;10761;48.532;8.026;2023-06-22T02:02:09;16.13;;;9.82;;
21206;SDS011;10761;48.532;8.026;2023-06-22T02:04:42;11.52;;;9.50;;
21206;SDS011;10761;48.532;8.026;2023-06-22T02:07:09;13.35;;;9.43;;
21206;SDS011;10761;48.532;8.026;2023-06-22T02:09:40;11.73;;;9.80;;
21206;SDS011;10761;48.532;8.026;2023-06-22T02:12:09;12.98;;;9.93;;
21206;SDS011;10761;48.532;8.026;2023-06-22T02:14:37;12.75;;;10.63;;
21206;SDS011;10761;48.532;8.026;2023-06-22T02:17:04;16.40;;;9.30;;
21206;SDS011;10761;48.532;8.026;2023-06-22T02:19:32;13.25;;;10.02;;
21206;SDS011;10761;48.532;8.026;2023-06-22T02:22:01;16.92;;;10.48;;
21206;SDS011;10761;48.532;8.026;2023-06-22T02:24:28;10.25;;;9.13;;
21206;SDS011;10761;48.532;8.026;2023-06-22T02:26:56;13.02;;;9.82;;
21206;SDS011;10761;48.532;8.026;2023-06-22T02:29:22;14.15;;;9.95;;
21206;SDS011;10761;48.532;8.026;2023-06-22T02:31:48;15.80;;;10.20;;
21206;SDS011;10761;48.532;8.026;2023-06-22T02:34:14;13.63;;;9.48;;
21206;SDS011;10761;48.532;8.026;2023-06-22T02:36:43;14.15;;;9.57;;
21206;SDS011;10761;48.532;8.026;2023-06-22T02:39:21;14.80;;;9.32;;
21206;SDS011;10761;48.532;8.026;2023-06-22T02:41:51;13.68;;;9.10;;
21206;SDS011;10761;48.532;8.026;2023-06-22T02:44:18;12.82;;;8.90;;
21206;SDS011;10761;48.532;8.026;2023-06-22T02:46:45;13.27;;;9.30;;
21206;SDS011;10761;48.532;8.026;2023-06-22T02:49:11;15.40;;;9.23;;
21206;SDS011;10761;48.532;8.026;2023-06-22T02:51:38;18.40;;;8.88;;
21206;SDS011;10761;48.532;8.026;2023-06-22T02:54:09;16.33;;;9.27;;
21206;SDS011;10761;48.532;8.026;2023-06-22T02:56:35;13.13;;;9.48;;
21206;SDS011;10761;48.532;8.026;2023-06-22T02:59:01;12.57;;;8.80;;
21206;SDS011;10761;48.532;8.026;2023-06-22T03:01:27;16.70;;;9.05;;
21206;SDS011;10761;48.532;8.026;2023-06-22T03:03:55;12.30;;;9.38;;
21206;SDS011;10761;48.532;8.026;2023-06-22T03:06:21;13.35;;;8.90;;
21206;SDS011;10761;48.532;8.026;2023-06-22T03:08:57;20.02;;;9.23;;
21206;SDS011;10761;48.532;8.026;2023-06-22T03:11:28;16.33;;;9.55;;
21206;SDS011;10761;48.532;8.026;2023-06-22T03:13:54;15.88;;;9.90;;
21206;SDS011;10761;48.532;8.026;2023-06-22T03:16:20;20.85;;;10.40;;
21206;SDS011;10761;48.532;8.026;2023-06-22T03:18:46;14.23;;;10.25;;
21206;SDS011;10761;48.532;8.026;2023-06-22T03:21:11;13.48;;;10.00;;
21206;SDS011;10761;48.532;8.026;2023-06-22T03:23:37;15.20;;;9.98;;
21206;SDS011;10761;48.532;8.026;2023-06-22T03:26:02;16.15;;;10.98;;
21206;SDS011;10761;48.532;8.026;2023-06-22T03:28:29;15.18;;;10.60;;
21206;SDS011;10761;48.532;8.026;2023-06-22T03:30:56;15.63;;;10.90;;
21206;SDS011;10761;48.532;8.026;2023-06-22T03:33:22;15.75;;;10.27;;
21206;SDS011;10761;48.532;8.026;2023-06-22T03:35:48;13.75;;;11.05;;
21206;SDS011;10761;48.532;8.026;2023-06-22T03:38:15;14.00;;;11.35;;
21206;SDS011;10761;48.532;8.026;2023-06-22T03:40:41;12.35;;;11.00;;
21206;SDS011;10761;48.532;8.026;2023-06-22T03:43:07;12.95;;;10.82;;
21206;SDS011;10761;48.532;8.026;2023-06-22T03:45:32;14.80;;;10.88;;
21206;SDS011;10761;48.532;8.026;2023-06-22T03:47:58;16.55;;;11.82;;
21206;SDS011;10761;48.532;8.026;2023-06-22T03:50:24;14.77;;;10.55;;
21206;SDS011;10761;48.532;8.026;2023-06-22T03:52:49;13.52;;;10.82;;
21206;SDS011;10761;48.532;8.026;2023-06-22T03:55:17;16.85;;;11.05;;
21206;SDS011;10761;48.532;8.026;2023-06-22T03:57:44;15.80;;;11.77;;
21206;SDS011;10761;48.532;8.026;2023-06-22T04:00:10;14.25;;;10.60;;
21206;SDS011;10761;48.532;8.026;2023-06-22T04:02:36;14.57;;;10.82;;
21206;SDS011;10761;48.532;8.026;2023-06-22T04:05:02;15.18;;;11.02;;
21206;SDS011;10761;48.532;8.026;2023-06-22T04:07:27;14.52;;;10.48;;
21206;SDS011;10761;48.532;8.026;2023-06-22T04:09:53;13.07;;;10.02;;
21206;SDS011;10761;48.532;8.026;2023-06-22T04:12:18;12.20;;;9.48;;
21206;SDS011;10761;48.532;8.026;2023-06-22T04:14:44;12.88;;;10.35;;
21206;SDS011;10761;48.532;8.026;2023-06-22T04:17:10;15.50;;;10.20;;
21206;SDS011;10761;48.532;8.026;2023-06-22T04:19:39;13.63;;;9.60;;
21206;SDS011;10761;48.532;8.026;2023-06-22T04:22:04;17.13;;;9.23;;
21206;SDS011;10761;48.532;8.026;2023-06-22T04:24:32;10.80;;;9.05;;
21206;SDS011;10761;48.532;8.026;2023-06-22T04:26:58;11.95;;;9.20;;
21206;SDS011;10761;48.532;8.026;2023-06-22T04:29:27;13.90;;;9.18;;
21206;SDS011;10761;48.532;8.026;2023-06-22T04:31:55;13.20;;;8.65;;
21206;SDS011;10761;48.532;8.026;2023-06-22T04:34:23;10.25;;;8.90;;
21206;SDS011;10761;48.532;8.026;2023-06-22T04:36:51;14.25;;;9.52;;
21206;SDS011;10761;48.532;8.026;2023-06-22T04:39:17;18.98;;;9.48;;
21206;SDS011;10761;48.532;8.026;2023-06-22T04:41:43;14.10;;;9.18;;
21206;SDS011;10761;48.532;8.026;2023-06-22T04:46:38;12.30;;;8.98;;
21206;SDS011;10761;48.532;8.026;2023-06-22T04:49:05;11.98;;;9.20;;
21206;SDS011;10761;48.532;8.026;2023-06-22T04:51:39;13.48;;;9.63;;
21206;SDS011;10761;48.532;8.026;2023-06-22T04:54:06;12.73;;;10.43;;
21206;SDS011;10761;48.532;8.026;2023-06-22T04:56:32;13.15;;;10.18;;
21206;SDS011;10761;48.532;8.026;2023-06-22T04:58:58;12.02;;;9.35;;
21206;SDS011;10761;48.532;8.026;2023-06-22T05:01:24;16.25;;;9.13;;
21206;SDS011;10761;48.532;8.026;2023-06-22T05:03:50;17.10;;;10.27;;
21206;SDS011;10761;48.532;8.026;2023-06-22T05:06:20;14.18;;;9.85;;
21206;SDS011;10761;48.532;8.026;2023-06-22T05:08:49;15.60;;;10.75;;
21206;SDS011;10761;48.532;8.026;2023-06-22T05:11:25;14.85;;;10.52;;
21206;SDS011;10761;48.532;8.026;2023-06-22T05:13:51;14.40;;;10.70;;
21206;SDS011;10761;48.532;8.026;2023-06-22T05:16:17;16.67;;;10.75;;
21206;SDS011;10761;48.532;8.026;2023-06-22T05:18:42;17.70;;;12.23;;
21206;SDS011;10761;48.532;8.026;2023-06-22T05:21:08;19.63;;;11.90;;
21206;SDS011;10761;48.532;8.026;2023-06-22T05:23:34;15.60;;;10.32;;
21206;SDS011;10761;48.532;8.026;2023-06-22T05:25:59;18.65;;;11.57;;
21206;SDS011;10761;48.532;8.026;2023-06-22T05:28:25;15.40;;;12.00;;
21206;SDS011;10761;48.532;8.026;2023-06-22T05:30:51;22.13;;;12.40;;
21206;SDS011;10761;48.532;8.026;2023-06-22T05:33:16;15.70;;;11.80;;
21206;SDS011;10761;48.532;8.026;2023-06-22T05:35:42;15.88;;;11.15;;
21206;SDS011;10761;48.532;8.026;2023-06-22T05:38:08;15.30;;;12.02;;
21206;SDS011;10761;48.532;8.026;2023-06-22T05:40:33;15.60;;;12.68;;
21206;SDS011;10761;48.532;8.026;2023-06-22T05:42:59;17.77;;;11.45;;
21206;SDS011;10761;48.532;8.026;2023-06-22T05:45:26;16.63;;;11.82;;
21206;SDS011;10761;48.532;8.026;2023-06-22T05:47:52;13.02;;;10.93;;
21206;SDS011;10761;48.532;8.026;2023-06-22T05:50:17;15.02;;;10.90;;
21206;SDS011;10761;48.532;8.026;2023-06-22T05:52:43;19.25;;;11.32;;
21206;SDS011;10761;48.532;8.026;2023-06-22T05:55:09;13.18;;;11.35;;
21206;SDS011;10761;48.532;8.026;2023-06-22T05:57:34;17.60;;;12.05;;
21206;SDS011;10761;48.532;8.026;2023-06-22T06:00:00;19.08;;;11.77;;
21206;SDS011;10761;48.532;8.026;2023-06-22T06:02:26;19.48;;;11.55;;
21206;SDS011;10761;48.532;8.026;2023-06-22T06:04:51;16.10;;;11.27;;
21206;SDS011;10761;48.532;8.026;2023-06-22T06:07:17;15.25;;;11.10;;
21206;SDS011;10761;48.532;8.026;2023-06-22T06:09:43;12.30;;;11.00;;
21206;SDS011;10761;48.532;8.026;2023-06-22T06:12:09;17.30;;;10.25;;
21206;SDS011;10761;48.532;8.026;2023-06-22T06:14:34;16.92;;;11.73;;
21206;SDS011;10761;48.532;8.026;2023-06-22T06:17:00;17.55;;;10.70;;
21206;SDS011;10761;48.532;8.026;2023-06-22T06:19:26;14.52;;;11.05;;
21206;SDS011;10761;48.532;8.026;2023-06-22T06:21:51;13.65;;;11.13;;
21206;SDS011;10761;48.532;8.026;2023-06-22T06:24:17;17.15;;;12.07;;
21206;SDS011;10761;48.532;8.026;2023-06-22T06:26:42;18.27;;;12.32;;
21206;SDS011;10761;48.532;8.026;2023-06-22T06:29:08;16.13;;;11.90;;
21206;SDS011;10761;48.532;8.026;2023-06-22T06:31:33;15.30;;;11.77;;
21206;SDS011;10761;48.532;8.026;2023-06-22T06:34:00;16.02;;;11.50;;
21206;SDS011;10761;48.532;8.026;2023-06-22T06:36:25;13.07;;;9.63;;
21206;SDS011;10761;48.532;8.026;2023-06-22T06:38:51;16.45;;;11.23;;
21206;SDS011;10761;48.532;8.026;2023-06-22T06:41:16;17.45;;;11.10;;
21206;SDS011;10761;48.532;8.026;2023-06-22T06:43:42;17.40;;;11.63;;
21206;SDS011;10761;48.532;8.026;2023-06-22T06:46:08;16.27;;;11.73;;
21206;SDS011;10761;48.532;8.026;2023-06-22T06:48:34;15.95;;;11.45;;
21206;SDS011;10761;48.532;8.026;2023-06-22T06:51:00;16.13;;;12.00;;
21206;SDS011;10761;48.532;8.026;2023-06-22T06:53:26;14.88;;;10.80;;
21206;SDS011;10761;48.532;8.026;2023-06-22T06:55:51;15.90;;;10.98;;
21206;SDS011;10761;48.532;8.026;2023-06-22T06:58:17;16.02;;;10.07;;
21206;SDS011;10761;48.532;8.026;2023-06-22T07:00:43;13.27;;;9.20;;
21206;SDS011;10761;48.532;8.026;2023-06-22T07:03:08;15.02;;;10.15;;
21206;SDS011;10761;48.532;8.026;2023-06-22T07:05:34;17.27;;;11.15;;
21206;SDS011;10761;48.532;8.026;2023-06-22T07:08:00;14.07;;;9.68;;
21206;SDS011;10761;48.532;8.026;2023-06-22T07:10:28;15.88;;;9.80;;
21206;SDS011;10761;48.532;8.026;2023-06-22T07:12:54;13.45;;;9.35;;
21206;SDS011;10761;48.532;8.026;2023-06-22T07:15:20;12.30;;;9.65;;
21206;SDS011;10761;48.532;8.026;2023-06-22T07:17:45;12.20;;;9.90;;
21206;SDS011;10761;48.532;8.026;2023-06-22T07:20:11;15.48;;;9.57;;
21206;SDS011;10761;48.532;8.026;2023-06-22T07:22:37;13.60;;;10.00;;
21206;SDS011;10761;48.532;8.026;2023-06-22T07:25:04;15.75;;;9.40;;
21206;SDS011;10761;48.532;8.026;2023-06-22T07:27:35;14.45;;;8.80;;
21206;SDS011;10761;48.532;8.026;2023-06-22T07:30:07;14.40;;;9.35;;
21206;SDS011;10761;48.532;8.026;2023-06-22T07:32:34;15.20;;;10.77;;
21206;SDS011;10761;48.532;8.026;2023-06-22T07:34:59;19.05;;;10.68;;
21206;SDS011;10761;48.532;8.026;2023-06-22T07:37:26;14.88;;;10.45;;
21206;SDS011;10761;48.532;8.026;2023-06-22T07:39:53;19.38;;;11.32;;
21206;SDS011;10761;48.532;8.026;2023-06-22T07:42:23;18.10;;;11.07;;
21206;SDS011;10761;48.532;8.026;2023-06-22T07:44:51;15.90;;;10.90;;
21206;SDS011;10761;48.532;8.026;2023-06-22T07:47:17;14.98;;;10.23;;
21206;SDS011;10761;48.532;8.026;2023-06-22T07:49:44;16.88;;;9.80;;
21206;SDS011;10761;48.532;8.026;2023-06-22T07:52:10;11.63;;;8.70;;
21206;SDS011;10761;48.532;8.026;2023-06-22T07:54:36;15.15;;;8.63;;
21206;SDS011;10761;48.532;8.026;2023-06-22T07:57:01;12.40;;;8.65;;
21206;SDS011;10761;48.532;8.026;2023-06-22T07:59:27;17.52;;;9.10;;
21206;SDS011;10761;48.532;8.026;2023-06-22T08:01:54;12.52;;;8.45;;
21206;SDS011;10761;48.532;8.026;2023-06-22T08:04:20;11.13;;;8.68;;
21206;SDS011;10761;48.532;8.026;2023-06-22T08:06:45;16.65;;;7.95;;
21206;SDS011;10761;48.532;8.026;2023-06-22T08:09:11;13.55;;;8.10;;
21206;SDS011;10761;48.532;8.026;2023-06-22T08:11:37;18.73;;;8.48;;
21206;SDS011;10761;48.532;8.026;2023-06-22T08:14:03;14.68;;;8.77;;
21206;SDS011;10761;48.532;8.026;2023-06-22T08:16:28;12.10;;;8.57;;
21206;SDS011;10761;48.532;8.026;2023-06-22T08:18:54;11.85;;;9.52;;
21206;SDS011;10761;48.532;8.026;2023-06-22T08:21:20;14.75;;;9.23;;
21206;SDS011;10761;48.532;8.026;2023-06-22T08:23:45;13.52;;;8.77;;
21206;SDS011;10761;48.532;8.026;2023-06-22T08:26:11;16.83;;;8.93;;
21206;SDS011;10761;48.532;8.026;2023-06-22T08:28:36;13.60;;;7.95;;
21206;SDS011;10761;48.532;8.026;2023-06-22T08:31:02;15.30;;;8.40;;
21206;SDS011;10761;48.532;8.026;2023-06-22T08:33:28;17.38;;;8.40;;
21206;SDS011;10761;48.532;8.026;2023-06-22T08:35:55;14.82;;;9.70;;
21206;SDS011;10761;48.532;8.026;2023-06-22T08:38:21;12.73;;;9.00;;
21206;SDS011;10761;48.532;8.026;2023-06-22T08:40:46;13.23;;;9.30;;
21206;SDS011;10761;48.532;8.026;2023-06-22T08:43:12;13.10;;;8.57;;
21206;SDS011;10761;48.532;8.026;2023-06-22T08:45:38;15.48;;;9.75;;
21206;SDS011;10761;48.532;8.026;2023-06-22T08:48:03;13.07;;;8.68;;
21206;SDS011;10761;48.532;8.026;2023-06-22T08:50:29;13.98;;;8.80;;
21206;SDS011;10761;48.532;8.026;2023-06-22T08:52:54;15.77;;;9.23;;
21206;SDS011;10761;48.532;8.026;2023-06-22T08:55:20;13.90;;;8.95;;
21206;SDS011;10761;48.532;8.026;2023-06-22T08:57:46;13.30;;;10.00;;
21206;SDS011;10761;48.532;8.026;2023-06-22T09:00:11;18.52;;;9.77;;
21206;SDS011;10761;48.532;8.026;2023-06-22T09:02:42;13.73;;;9.07;;
21206;SDS011;10761;48.532;8.026;2023-06-22T09:05:08;14.35;;;10.07;;
21206;SDS011;10761;48.532;8.026;2023-06-22T09:07:34;15.60;;;9.32;;
21206;SDS011;10761;48.532;8.026;2023-06-22T09:10:00;15.75;;;8.65;;
21206;SDS011;10761;48.532;8.026;2023-06-22T09:12:25;10.23;;;8.30;;
21206;SDS011;10761;48.532;8.026;2023-06-22T09:14:52;14.45;;;8.25;;
21206;SDS011;10761;48.532;8.026;2023-06-22T09:17:18;14.57;;;8.73;;
21206;SDS011;10761;48.532;8.026;2023-06-22T09:19:43;14.70;;;8.05;;
21206;SDS011;10761;48.532;8.026;2023-06-22T09:22:09;18.08;;;8.52;;
21206;SDS011;10761;48.532;8.026;2023-06-22T09:24:35;14.35;;;8.77;;
21206;SDS011;10761;48.532;8.026;2023-06-22T09:29:48;13.73;;;8.05;;
21206;SDS011;10761;48.532;8.026;2023-06-22T09:32:14;14.82;;;7.47;;
21206;SDS011;10761;48.532;8.026;2023-06-22T09:34:40;13.95;;;8.32;;
21206;SDS011;10761;48.532;8.026;2023-06-22T09:37:06;12.65;;;8.02;;
21206;SDS011;10761;48.532;8.026;2023-06-22T09:39:32;18.98;;;8.88;;
21206;SDS011;10761;48.532;8.026;2023-06-22T09:41:58;11.30;;;7.82;;
21206;SDS011;10761;48.532;8.026;2023-06-22T09:44:25;11.73;;;8.57;;
21206;SDS011;10761;48.532;8.026;2023-06-22T09:46:50;12.80;;;8.57;;
21206;SDS011;10761;48.532;8.026;2023-06-22T09:49:16;20.60;;;9.27;;
21206;SDS011;10761;48.532;8.026;2023-06-22T09:51:41;14.60;;;7.85;;
21206;SDS011;10761;48.532;8.026;2023-06-22T09:54:07;15.77;;;8.48;;
21206;SDS011;10761;48.532;8.026;2023-06-22T09:56:32;14.95;;;8.10;;
21206;SDS011;10761;48.532;8.026;2023-06-22T09:58:58;13.00;;;7.95;;
21206;SDS011;10761;48.532;8.026;2023-06-22T10:01:23;14.73;;;8.00;;
21206;SDS011;10761;48.532;8.026;2023-06-22T10:03:49;14.48;;;7.80;;
21206;SDS011;10761;48.532;8.026;2023-06-22T10:06:19;15.38;;;8.77;;
21206;SDS011;10761;48.532;8.026;2023-06-22T10:08:45;16.98;;;9.30;;
21206;SDS011;10761;48.532;8.026;2023-06-22T10:11:10;12.63;;;8.13;;
21206;SDS011;10761;48.532;8.026;2023-06-22T10:13:36;20.77;;;9.23;;
21206;SDS011;10761;48.532;8.026;2023-06-22T10:16:01;13.20;;;8.73;;
21206;SDS011;10761;48.532;8.026;2023-06-22T10:18:27;13.25;;;7.53;;
21206;SDS011;10761;48.532;8.026;2023-06-22T10:20:52;12.20;;;7.70;;
21206;SDS011;10761;48.532;8.026;2023-06-22T10:23:18;12.25;;;7.55;;
21206;SDS011;10761;48.532;8.026;2023-06-22T10:25:44;13.68;;;7.50;;
21206;SDS011;10761;48.532;8.026;2023-06-22T10:28:10;16.50;;;7.30;;
21206;SDS011;10761;48.532;8.026;2023-06-22T10:30:35;10.25;;;7.50;;
21206;SDS011;10761;48.532;8.026;2023-06-22T10:33:01;13.40;;;8.30;;
21206;SDS011;10761;48.532;8.026;2023-06-22T10:35:27;14.68;;;7.85;;
21206;SDS011;10761;48.532;8.026;2023-06-22T10:37:52;17.50;;;8.02;;
21206;SDS011;10761;48.532;8.026;2023-06-22T10:40:19;13.00;;;8.35;;
21206;SDS011;10761;48.532;8.026;2023-06-22T10:42:45;10.88;;;7.70;;
21206;SDS011;10761;48.532;8.026;2023-06-22T10:45:10;10.38;;;6.45;;
21206;SDS011;10761;48.532;8.026;2023-06-22T10:47:36;12.48;;;7.25;;
21206;SDS011;10761;48.532;8.026;2023-06-22T10:50:02;16.00;;;8.50;;
21206;SDS011;10761;48.532;8.026;2023-06-22T10:52:28;13.20;;;7.95;;
21206;SDS011;10761;48.532;8.026;2023-06-22T10:54:54;14.48;;;7.70;;
21206;SDS011;10761;48.532;8.026;2023-06-22T10:57:21;13.57;;;8.73;;
21206;SDS011;10761;48.532;8.026;2023-06-22T10:59:47;12.50;;;8.55;;
21206;SDS011;10761;48.532;8.026;2023-06-22T11:02:12;14.10;;;8.05;;
21206;SDS011;10761;48.532;8.026;2023-06-22T11:04:38;13.30;;;7.28;;
21206;SDS011;10761;48.532;8.026;2023-06-22T11:07:04;11.93;;;7.80;;
21206;SDS011;10761;48.532;8.026;2023-06-22T11:09:29;19.83;;;7.50;;
21206;SDS011;10761;48.532;8.026;2023-06-22T11:11:55;13.00;;;8.13;;
21206;SDS011;10761;48.532;8.026;2023-06-22T11:14:21;20.25;;;9.10;;
21206;SDS011;10761;48.532;8.026;2023-06-22T11:16:47;12.10;;;7.38;;
21206;SDS011;10761;48.532;8.026;2023-06-22T11:19:13;14.70;;;7.55;;
21206;SDS011;10761;48.532;8.026;2023-06-22T11:21:38;14.93;;;8.93;;
21206;SDS011;10761;48.532;8.026;2023-06-22T11:24:04;16.85;;;8.65;;
21206;SDS011;10761;48.532;8.026;2023-06-22T11:26:30;11.40;;;7.53;;
21206;SDS011;10761;48.532;8.026;2023-06-22T11:28:56;12.98;;;8.73;;
21206;SDS011;10761;48.532;8.026;2023-06-22T11:31:23;18.67;;;9.38;;
21206;SDS011;10761;48.532;8.026;2023-06-22T11:33:48;20.15;;;9.55;;
21206;SDS011;10761;48.532;8.026;2023-06-22T11:36:14;17.35;;;9.18;;
21206;SDS011;10761;48.532;8.026;2023-06-22T11:38:40;12.57;;;8.73;;
21206;SDS011;10761;48.532;8.026;2023-06-22T11:41:07;16.13;;;9.45;;
21206;SDS011;10761;48.532;8.026;2023-06-22T11:43:32;13.63;;;9.10;;
21206;SDS011;10761;48.532;8.026;2023-06-22T11:45:58;14.38;;;9.00;;
21206;SDS011;10761;48.532;8.026;2023-06-22T11:48:24;16.92;;;8.65;;
21206;SDS011;10761;48.532;8.026;2023-06-22T11:50:50;16.20;;;8.00;;
21206;SDS011;10761;48.532;8.026;2023-06-22T11:53:16;12.77;;;7.70;;
21206;SDS011;10761;48.532;8.026;2023-06-22T11:55:42;10.40;;;8.20;;
21206;SDS011;10761;48.532;8.026;2023-06-22T11:58:08;11.27;;;7.95;;
21206;SDS011;10761;48.532;8.026;2023-06-22T12:00:34;14.18;;;8.30;;
21206;SDS011;10761;48.532;8.026;2023-06-22T12:02:59;13.60;;;8.02;;
21206;SDS011;10761;48.532;8.026;2023-06-22T12:05:25;12.30;;;7.93;;
21206;SDS011;10761;48.532;8.026;2023-06-22T12:07:53;17.15;;;7.63;;
21206;SDS011;10761;48.532;8.026;2023-06-22T12:10:19;12.88;;;7.35;;
21206;SDS011;10761;48.532;8.026;2023-06-22T12:12:45;13.18;;;8.07;;
21206;SDS011;10761;48.532;8.026;2023-06-22T12:15:10;13.10;;;7.82;;
21206;SDS011;10761;48.532;8.026;2023-06-22T12:17:36;14.88;;;8.07;;
21206;SDS011;10761;48.532;8.026;2023-06-22T12:20:02;11.18;;;7.00;;
21206;SDS011;10761;48.532;8.026;2023-06-22T12:22:30;13.40;;;7.35;;
21206;SDS011;10761;48.532;8.026;2023-06-22T12:24:56;10.63;;;6.78;;
21206;SDS011;10761;48.532;8.026;2023-06-22T12:27:22;14.73;;;7.20;;
21206;SDS011;10761;48.532;8.026;2023-06-22T12:29:48;14.65;;;7.80;;
21206;SDS011;10761;48.532;8.026;2023-06-22T12:32:13;14.05;;;7.80;;
21206;SDS011;10761;48.532;8.026;2023-06-22T12:34:40;14.55;;;7.47;;
21206;SDS011;10761;48.532;8.026;2023-06-22T12:37:07;10.55;;;7.00;;
21206;SDS011;10761;48.532;8.026;2023-06-22T12:39:32;14.73;;;7.05;;
21206;SDS011;10761;48.532;8.026;2023-06-22T12:41:58;11.98;;;7.22;;
21206;SDS011;10761;48.532;8.026;2023-06-22T12:44:23;10.02;;;7.40;;
21206;SDS011;10761;48.532;8.026;2023-06-22T12:46:49;12.52;;;7.07;;
21206;SDS011;10761;48.532;8.026;2023-06-22T12:49:15;15.57;;;7.38;;
21206;SDS011;10761;48.532;8.026;2023-06-22T12:51:40;13.82;;;7.30;;
21206;SDS011;10761;48.532;8.026;2023-06-22T12:54:10;14.45;;;6.95;;
21206;SDS011;10761;48.532;8.026;2023-06-22T12:56:36;14.63;;;6.95;;
21206;SDS011;10761;48.532;8.026;2023-06-22T12:59:02;12.45;;;6.90;;
21206;SDS011;10761;48.532;8.026;2023-06-22T13:01:29;10.50;;;6.03;;
21206;SDS011;10761;48.532;8.026;2023-06-22T13:03:55;12.38;;;6.57;;
21206;SDS011;10761;48.532;8.026;2023-06-22T13:06:21;11.70;;;6.40;;
21206;SDS011;10761;48.532;8.026;2023-06-22T13:08:46;16.98;;;6.50;;
21206;SDS011;10761;48.532;8.026;2023-06-22T13:11:12;16.15;;;6.50;;
21206;SDS011;10761;48.532;8.026;2023-06-22T13:13:38;13.55;;;6.63;;
21206;SDS011;10761;48.532;8.026;2023-06-22T13:16:04;15.88;;;7.07;;
21206;SDS011;10761;48.532;8.026;2023-06-22T13:18:30;19.77;;;7.80;;
21206;SDS011;10761;48.532;8.026;2023-06-22T13:20:55;15.90;;;6.90;;
21206;SDS011;10761;48.532;8.026;2023-06-22T13:23:23;18.30;;;6.60;;
21206;SDS011;10761;48.532;8.026;2023-06-22T13:25:48;18.02;;;6.68;;
21206;SDS011;10761;48.532;8.026;2023-06-22T13:28:14;16.77;;;6.68;;
21206;SDS011;10761;48.532;8.026;2023-06-22T13:30:40;11.07;;;6.22;;
21206;SDS011;10761;48.532;8.026;2023-06-22T13:33:06;13.38;;;6.78;;
21206;SDS011;10761;48.532;8.026;2023-06-22T13:35:32;13.82;;;6.53;;
21206;SDS011;10761;48.532;8.026;2023-06-22T13:37:57;16.33;;;6.53;;
21206;SDS011;10761;48.532;8.026;2023-06-22T13:40:23;12.95;;;6.88;;
21206;SDS011;10761;48.532;8.026;2023-06-22T13:42:50;11.52;;;6.60;;
21206;SDS011;10761;48.532;8.026;2023-06-22T13:45:15;17.90;;;6.57;;
21206;SDS011;10761;48.532;8.026;2023-06-22T13:47:42;16.20;;;6.75;;
21206;SDS011;10761;48.532;8.026;2023-06-22T13:50:08;13.57;;;6.57;;
21206;SDS011;10761;48.532;8.026;2023-06-22T13:52:33;18.30;;;6.95;;
21206;SDS011;10761;48.532;8.026;2023-06-22T13:54:59;19.48;;;7.30;;
21206;SDS011;10761;48.532;8.026;2023-06-22T13:57:26;22.63;;;6.97;;
21206;SDS011;10761;48.532;8.026;2023-06-22T13:59:52;12.50;;;6.47;;
21206;SDS011;10761;48.532;8.026;2023-06-22T14:02:18;13.90;;;5.72;;
21206;SDS011;10761;48.532;8.026;2023-06-22T14:04:43;10.60;;;5.50;;
21206;SDS011;10761;48.532;8.026;2023-06-22T14:07:09;15.50;;;5.72;;
21206;SDS011;10761;48.532;8.026;2023-06-22T14:09:34;17.23;;;6.50;;
21206;SDS011;10761;48.532;8.026;2023-06-22T14:12:03;14.38;;;5.68;;
21206;SDS011;10761;48.532;8.026;2023-06-22T14:14:31;15.02;;;6.50;;
21206;SDS011;10761;48.532;8.026;2023-06-22T14:16:57;12.25;;;5.70;;
21206;SDS011;10761;48.532;8.026;2023-06-22T14:19:23;11.50;;;5.72;;
21206;SDS011;10761;48.532;8.026;2023-06-22T14:21:49;15.32;;;6.00;;
21206;SDS011;10761;48.532;8.026;2023-06-22T14:24:14;18.55;;;5.90;;
21206;SDS011;10761;48.532;8.026;2023-06-22T14:26:40;17.40;;;6.18;;
21206;SDS011;10761;48.532;8.026;2023-06-22T14:29:05;15.60;;;5.70;;
21206;SDS011;10761;48.532;8.026;2023-06-22T14:31:31;17.00;;;5.93;;
21206;SDS011;10761;48.532;8.026;2023-06-22T14:33:57;17.67;;;6.40;;
21206;SDS011;10761;48.532;8.026;2023-06-22T14:36:22;16.38;;;5.88;;
21206;SDS011;10761;48.532;8.026;2023-06-22T14:38:48;16.42;;;6.18;;
21206;SDS011;10761;48.532;8.026;2023-06-22T14:41:14;12.38;;;5.30;;